createdAt,value
2023-02-02T00:01:28.140Z,5.68
2023-02-02T00:03:55.971Z,5.38
2023-02-02T00:06:25.965Z,4.90
2023-02-02T00:08:53.053Z,4.38
2023-02-02T00:11:20.054Z,5.28
2023-02-02T00:13:46.941Z,4.57
2023-02-02T00:16:42.229Z,4.18
2023-02-02T00:19:14.307Z,5.32
2023-02-02T00:21:41.840Z,4.43
2023-02-02T00:24:10.724Z,4.97
2023-02-02T00:26:39.790Z,5.10
2023-02-02T00:29:07.839Z,4.43
2023-02-02T00:31:35.342Z,4.95
2023-02-02T00:34:01.972Z,4.55
2023-02-02T00:36:28.619Z,4.68
2023-02-02T00:38:55.232Z,4.45
2023-02-02T00:41:21.996Z,4.88
2023-02-02T00:44:08.609Z,5.03
2023-02-02T00:46:38.619Z,4.70
2023-02-02T00:49:05.241Z,4.75
2023-02-02T00:51:31.952Z,5.15
2023-02-02T00:53:58.559Z,4.53
2023-02-02T00:56:25.873Z,4.40
2023-02-02T00:58:52.567Z,5.53
2023-02-02T01:01:21.634Z,6.05
2023-02-02T01:03:49.807Z,4.65
2023-02-02T01:06:17.356Z,5.45
2023-02-02T01:08:44.197Z,5.38
2023-02-02T01:11:11.038Z,6.60
2023-02-02T01:13:37.628Z,6.28
2023-02-02T01:16:05.051Z,4.90
2023-02-02T01:18:31.956Z,5.50
2023-02-02T01:21:04.400Z,5.63
2023-02-02T01:23:31.649Z,5.72
2023-02-02T01:26:00.126Z,6.25
2023-02-02T01:28:27.771Z,6.55
2023-02-02T01:30:55.129Z,6.38
2023-02-02T01:33:22.366Z,7.40
2023-02-02T01:35:51.566Z,6.15
2023-02-02T01:38:19.048Z,6.55
2023-02-02T01:40:50.891Z,5.93
2023-02-02T01:43:29.519Z,6.53
2023-02-02T01:45:58.310Z,6.90
2023-02-02T01:48:29.665Z,5.78
2023-02-02T01:51:00.329Z,7.07
2023-02-02T01:53:28.599Z,7.68
2023-02-02T01:55:55.843Z,7.78
2023-02-02T01:58:30.223Z,7.20
2023-02-02T02:00:56.953Z,7.07
2023-02-02T02:03:26.985Z,7.63
2023-02-02T02:06:05.536Z,6.55
2023-02-02T02:08:52.617Z,6.75
2023-02-02T02:11:20.831Z,7.70
2023-02-02T02:14:06.686Z,7.18
2023-02-02T02:16:51.678Z,8.10
2023-02-02T02:20:24.943Z,6.68
2023-02-02T02:23:33.280Z,5.88
2023-02-02T02:26:33.772Z,6.82
2023-02-02T02:29:07.491Z,7.05
2023-02-02T02:32:00.148Z,7.53
2023-02-02T02:34:39.084Z,6.60
2023-02-02T02:37:22.737Z,8.13
2023-02-02T02:40:01.622Z,7.95
2023-02-02T02:42:33.903Z,8.50
2023-02-02T02:45:02.981Z,8.00
2023-02-02T02:47:31.288Z,7.70
2023-02-02T02:49:57.912Z,8.63
2023-02-02T02:52:24.548Z,7.72
2023-02-02T02:54:55.193Z,7.65
2023-02-02T02:57:49.245Z,7.15
2023-02-02T03:00:36.004Z,7.95
2023-02-02T03:03:27.726Z,7.78
2023-02-02T03:06:19.752Z,8.10
2023-02-02T03:08:53.379Z,7.65
2023-02-02T03:11:20.700Z,7.28
2023-02-02T03:13:48.794Z,7.95
2023-02-02T03:16:16.099Z,7.40
2023-02-02T03:18:42.848Z,7.45
2023-02-02T03:21:09.466Z,8.32
2023-02-02T03:23:36.229Z,7.15
2023-02-02T03:26:03.050Z,7.57
2023-02-02T03:28:30.142Z,7.35
2023-02-02T03:30:59.202Z,7.20
2023-02-02T03:33:26.197Z,6.80
2023-02-02T03:35:52.816Z,6.38
2023-02-02T03:38:19.442Z,7.38
2023-02-02T03:40:46.067Z,6.93
2023-02-02T03:43:12.729Z,7.93
2023-02-02T03:45:40.735Z,6.47
2023-02-02T03:48:07.542Z,6.93
2023-02-02T03:50:34.368Z,7.43
2023-02-02T03:53:00.941Z,6.63
2023-02-02T03:55:27.664Z,7.35
2023-02-02T03:57:54.232Z,6.78
2023-02-02T04:00:21.372Z,7.35
2023-02-02T04:02:48.054Z,6.47
2023-02-02T04:05:14.817Z,7.35
2023-02-02T04:07:41.548Z,7.60
2023-02-02T04:10:08.722Z,7.40
2023-02-02T04:12:35.288Z,7.47
2023-02-02T04:15:02.053Z,6.80
2023-02-02T04:17:28.681Z,7.18
2023-02-02T04:19:58.092Z,7.30
2023-02-02T04:22:26.113Z,7.47
2023-02-02T04:24:52.762Z,7.97
2023-02-02T04:27:20.105Z,6.78
2023-02-02T04:29:46.840Z,7.05
2023-02-02T04:32:16.147Z,8.13
2023-02-02T04:34:43.457Z,9.07
2023-02-02T04:37:10.947Z,8.32
2023-02-02T04:39:37.624Z,8.57
2023-02-02T04:42:04.410Z,6.97
2023-02-02T04:44:31.061Z,6.85
2023-02-02T04:46:57.743Z,7.68
2023-02-02T04:49:24.424Z,7.38
2023-02-02T04:51:51.076Z,7.10
2023-02-02T04:54:18.249Z,7.47
2023-02-02T04:56:44.994Z,7.38
2023-02-02T04:59:11.653Z,8.30
2023-02-02T05:01:38.357Z,6.72
2023-02-02T05:04:05.150Z,7.18
2023-02-02T05:06:31.753Z,6.60
2023-02-02T05:08:58.407Z,6.88
2023-02-02T05:11:25.064Z,6.65
2023-02-02T05:13:53.600Z,7.22
2023-02-02T05:16:21.450Z,6.75
2023-02-02T05:18:56.832Z,5.97
2023-02-02T05:21:24.340Z,5.28
2023-02-02T05:23:51.002Z,6.07
2023-02-02T05:26:22.236Z,5.70
2023-02-02T05:28:49.123Z,6.32
2023-02-02T05:31:16.119Z,6.30
2023-02-02T05:33:42.965Z,5.35
2023-02-02T05:36:09.988Z,5.55
2023-02-02T05:38:36.737Z,4.68
2023-02-02T05:41:03.982Z,5.22
2023-02-02T05:43:32.618Z,4.82
2023-02-02T05:45:59.597Z,4.63
2023-02-02T05:48:26.863Z,5.25
2023-02-02T05:51:07.822Z,5.30
2023-02-02T05:53:34.434Z,4.80
2023-02-02T05:56:01.086Z,4.80
2023-02-02T05:58:28.147Z,5.30
2023-02-02T06:00:56.595Z,5.80
2023-02-02T06:03:23.719Z,5.32
2023-02-02T06:05:50.536Z,6.38
2023-02-02T06:08:17.217Z,5.65
2023-02-02T06:10:44.122Z,6.43
2023-02-02T06:13:10.823Z,6.13
2023-02-02T06:15:37.537Z,5.40
2023-02-02T06:18:06.640Z,5.53
2023-02-02T06:20:33.405Z,5.45
2023-02-02T06:23:00.134Z,5.43
2023-02-02T06:25:27.028Z,6.22
2023-02-02T06:27:58.124Z,4.88
2023-02-02T06:30:25.464Z,4.68
2023-02-02T06:32:52.201Z,4.38
2023-02-02T06:35:19.578Z,5.00
2023-02-02T06:37:46.510Z,4.78
2023-02-02T06:40:13.816Z,4.68
2023-02-02T06:42:41.003Z,4.63
2023-02-02T06:45:08.120Z,5.40
2023-02-02T06:47:34.931Z,4.90
2023-02-02T06:50:01.720Z,7.32
2023-02-02T06:52:28.622Z,5.90
2023-02-02T06:54:55.308Z,5.75
2023-02-02T06:57:22.073Z,5.68
2023-02-02T06:59:48.683Z,6.15
2023-02-02T07:02:15.367Z,6.15
2023-02-02T07:04:42.302Z,6.80
2023-02-02T07:07:09.032Z,5.10
2023-02-02T07:09:35.713Z,6.05
2023-02-02T07:12:02.352Z,6.43
2023-02-02T07:14:28.922Z,5.75
2023-02-02T07:16:55.587Z,6.07
2023-02-02T07:19:22.170Z,6.05
2023-02-02T07:21:48.872Z,6.72
2023-02-02T07:24:15.500Z,7.35
2023-02-02T07:26:42.166Z,7.07
2023-02-02T07:29:13.159Z,5.65
2023-02-02T07:31:40.490Z,5.65
2023-02-02T07:34:07.206Z,5.93
2023-02-02T07:36:34.053Z,5.95
2023-02-02T07:39:03.878Z,7.35
2023-02-02T07:41:31.300Z,6.47
2023-02-02T07:43:57.955Z,6.25
2023-02-02T07:46:24.728Z,6.68
2023-02-02T07:48:55.380Z,5.88
2023-02-02T07:51:22.652Z,6.00
2023-02-02T07:53:51.561Z,6.38
2023-02-02T07:56:20.804Z,6.28
2023-02-02T07:58:47.587Z,7.03
2023-02-02T08:01:16.179Z,7.07
2023-02-02T08:03:43.891Z,6.25
2023-02-02T08:06:14.578Z,6.57
2023-02-02T08:08:41.436Z,5.68
2023-02-02T08:11:09.980Z,5.53
2023-02-02T08:13:36.766Z,5.22
2023-02-02T08:16:03.617Z,5.88
2023-02-02T08:18:30.304Z,6.22
2023-02-02T08:21:01.458Z,5.72
2023-02-02T08:23:28.816Z,6.35
2023-02-02T08:26:06.131Z,6.35
2023-02-02T08:28:32.931Z,5.55
2023-02-02T08:31:06.873Z,5.80
2023-02-02T08:33:33.616Z,5.60
2023-02-02T08:36:00.342Z,5.05
2023-02-02T08:38:26.919Z,5.68
2023-02-02T08:40:53.622Z,5.75
2023-02-02T08:43:20.577Z,4.78
2023-02-02T08:46:01.322Z,4.28
2023-02-02T08:48:35.642Z,5.43
2023-02-02T08:51:03.331Z,4.43
2023-02-02T08:53:30.885Z,4.80
2023-02-02T08:56:02.011Z,4.03
2023-02-02T08:58:28.866Z,4.60
2023-02-02T09:00:55.614Z,4.55
2023-02-02T09:03:22.253Z,3.65
2023-02-02T09:05:49.006Z,3.55
2023-02-02T09:08:15.636Z,4.28
2023-02-02T09:10:42.391Z,4.00
2023-02-02T09:13:09.166Z,3.80
2023-02-02T09:15:35.834Z,4.07
2023-02-02T09:18:02.390Z,3.78
2023-02-02T09:20:28.982Z,3.75
2023-02-02T09:22:57.184Z,3.70
2023-02-02T09:25:25.196Z,4.00
2023-02-02T09:27:52.011Z,4.28
2023-02-02T09:30:19.139Z,3.95
2023-02-02T09:32:49.321Z,4.35
2023-02-02T09:35:16.032Z,4.18
2023-02-02T09:37:44.190Z,4.53
2023-02-02T09:40:17.794Z,4.20
2023-02-02T09:43:07.058Z,4.55
2023-02-02T09:45:52.413Z,3.08
2023-02-02T09:48:49.177Z,4.18
2023-02-02T09:51:21.007Z,3.60
2023-02-02T09:53:56.320Z,4.20
2023-02-02T09:56:27.334Z,3.92
2023-02-02T09:58:58.841Z,3.97
2023-02-02T10:01:36.633Z,4.15
2023-02-02T10:04:26.671Z,4.15
2023-02-02T10:06:57.821Z,4.65
2023-02-02T10:09:37.301Z,3.55
2023-02-02T10:12:33.178Z,3.65
2023-02-02T10:14:59.828Z,3.58
2023-02-02T10:17:54.727Z,4.68
2023-02-02T10:20:26.612Z,3.80
2023-02-02T10:22:58.043Z,4.45
2023-02-02T10:25:28.766Z,3.90
2023-02-02T10:28:11.667Z,3.55
2023-02-02T10:30:47.137Z,3.03
2023-02-02T10:33:38.422Z,4.05
2023-02-02T10:36:13.720Z,3.50
2023-02-02T10:39:12.364Z,3.45
2023-02-02T10:41:56.198Z,3.77
2023-02-02T10:44:34.613Z,4.05
2023-02-02T10:47:05.349Z,3.80
2023-02-02T10:49:40.343Z,3.30
2023-02-02T10:52:18.312Z,3.15
2023-02-02T10:55:06.553Z,2.85
2023-02-02T10:58:03.201Z,3.10
2023-02-02T11:00:54.531Z,2.90
2023-02-02T11:03:25.062Z,2.88
2023-02-02T11:06:10.719Z,2.85
2023-02-02T11:08:46.087Z,3.08
2023-02-02T11:11:22.225Z,2.90
2023-02-02T11:13:51.844Z,3.83
2023-02-02T11:16:23.534Z,3.75
2023-02-02T11:18:50.565Z,2.90
2023-02-02T11:21:27.653Z,2.58
2023-02-02T11:24:00.930Z,3.17
2023-02-02T11:26:45.404Z,2.45
2023-02-02T11:29:54.092Z,2.83
2023-02-02T11:32:29.536Z,2.67
2023-02-02T11:35:10.880Z,3.63
2023-02-02T11:37:38.470Z,4.35
2023-02-02T11:40:28.249Z,5.07
2023-02-02T11:43:00.652Z,2.85
2023-02-02T11:45:40.566Z,2.85
2023-02-02T11:48:12.652Z,2.95
2023-02-02T11:50:44.657Z,3.00
2023-02-02T11:53:23.015Z,2.53
2023-02-02T11:55:49.718Z,3.60
2023-02-02T11:58:25.074Z,2.65
2023-02-02T12:01:01.115Z,2.70
2023-02-02T12:03:35.358Z,3.17
2023-02-02T12:06:24.777Z,2.83
2023-02-02T12:08:56.965Z,3.58
2023-02-02T12:11:51.400Z,2.47
2023-02-02T12:14:51.034Z,2.58
2023-02-02T12:17:41.758Z,2.60
2023-02-02T12:20:31.838Z,2.58
2023-02-02T12:23:23.649Z,2.30
2023-02-02T12:26:05.645Z,1.90
2023-02-02T12:29:05.068Z,2.75
2023-02-02T12:31:59.459Z,4.18
2023-02-02T12:34:41.846Z,3.60
2023-02-02T12:37:35.728Z,3.03
2023-02-02T12:40:27.491Z,3.28
2023-02-02T12:43:00.442Z,2.97
2023-02-02T12:45:57.292Z,2.72
2023-02-02T12:48:37.956Z,3.50
2023-02-02T12:51:13.320Z,3.70
2023-02-02T12:53:42.689Z,3.45
2023-02-02T12:56:28.901Z,4.05
2023-02-02T12:58:58.222Z,5.10
2023-02-02T13:01:55.805Z,3.85
2023-02-02T13:05:04.826Z,3.70
2023-02-02T13:07:35.469Z,4.05
2023-02-02T13:10:08.367Z,3.83
2023-02-02T13:12:41.136Z,3.45
2023-02-02T13:15:13.244Z,3.70
2023-02-02T13:17:49.498Z,3.70
2023-02-02T13:20:34.793Z,4.10
2023-02-02T13:23:08.403Z,4.35
2023-02-02T13:25:42.773Z,4.32
2023-02-02T13:28:19.600Z,4.47
2023-02-02T13:30:49.131Z,4.50
2023-02-02T13:33:26.282Z,4.05
2023-02-02T13:36:00.896Z,3.75
2023-02-02T13:38:30.590Z,3.88
2023-02-02T13:43:38.758Z,3.20
2023-02-02T13:46:35.170Z,3.88
2023-02-02T13:49:30.135Z,4.35
2023-02-02T13:52:24.225Z,3.40
2023-02-02T13:55:12.522Z,2.90
2023-02-02T13:58:17.603Z,3.67
2023-02-02T14:00:50.428Z,3.40
2023-02-02T14:03:38.737Z,3.55
2023-02-02T14:06:13.709Z,3.35
2023-02-02T14:08:48.125Z,4.75
2023-02-02T14:11:28.541Z,3.88
2023-02-02T14:14:32.145Z,3.85
2023-02-02T14:17:04.360Z,3.25
2023-02-02T14:19:30.933Z,3.45
2023-02-02T14:22:09.518Z,4.03
2023-02-02T14:24:36.078Z,3.97
2023-02-02T14:27:08.620Z,4.38
2023-02-02T14:29:58.021Z,3.38
2023-02-02T14:32:24.863Z,4.72
2023-02-02T14:35:08.399Z,5.47
2023-02-02T14:37:41.514Z,4.15
2023-02-02T14:40:08.646Z,5.18
2023-02-02T14:42:56.737Z,4.97
2023-02-02T14:45:28.744Z,4.85
2023-02-02T14:48:00.626Z,3.00
2023-02-02T14:50:39.676Z,4.28
2023-02-02T14:53:13.132Z,3.55
2023-02-02T14:55:55.720Z,3.50
2023-02-02T14:58:48.244Z,3.95
2023-02-02T15:01:17.743Z,2.90
2023-02-02T15:03:49.566Z,3.92
2023-02-02T15:06:31.368Z,3.08
2023-02-02T15:09:19.985Z,3.03
2023-02-02T15:12:00.905Z,3.05
2023-02-02T15:14:34.259Z,3.25
2023-02-02T15:17:31.173Z,2.78
2023-02-02T15:20:24.462Z,3.58
2023-02-02T15:22:57.754Z,4.10
2023-02-02T15:25:34.027Z,4.18
2023-02-02T15:28:39.326Z,4.05
2023-02-02T15:31:11.888Z,3.53
2023-02-02T15:33:51.393Z,3.10
2023-02-02T15:36:25.789Z,3.35
2023-02-02T15:38:56.229Z,3.67
2023-02-02T15:41:32.722Z,2.67
2023-02-02T15:44:17.517Z,3.60
2023-02-02T15:46:44.669Z,2.85
2023-02-02T15:49:33.825Z,2.97
2023-02-02T15:52:15.508Z,2.88
2023-02-02T15:54:59.222Z,2.75
2023-02-02T15:57:34.646Z,2.55
2023-02-02T16:00:21.781Z,2.10
2023-02-02T16:02:52.982Z,2.33
2023-02-02T16:05:36.256Z,2.83
2023-02-02T16:08:07.395Z,2.38
2023-02-02T16:10:35.097Z,3.03
2023-02-02T16:13:02.733Z,2.28
2023-02-02T16:15:31.899Z,4.30
2023-02-02T16:18:11.709Z,3.17
2023-02-02T16:23:12.322Z,2.88
2023-02-02T16:25:47.562Z,2.40
2023-02-02T16:28:17.063Z,2.65
2023-02-02T16:30:45.480Z,2.55
2023-02-02T16:33:35.523Z,2.85
2023-02-02T16:36:06.126Z,2.30
2023-02-02T16:38:37.577Z,2.80
2023-02-02T16:41:12.759Z,2.47
2023-02-02T16:43:41.552Z,2.17
2023-02-02T16:46:14.624Z,2.20
2023-02-02T16:48:45.004Z,2.10
2023-02-02T16:51:18.018Z,2.53
2023-02-02T16:53:58.229Z,2.22
2023-02-02T16:56:33.952Z,2.40
2023-02-02T16:59:05.383Z,2.28
2023-02-02T17:01:36.881Z,1.85
2023-02-02T17:04:06.101Z,2.90
2023-02-02T17:06:46.223Z,2.53
2023-02-02T17:09:40.935Z,2.38
2023-02-02T17:12:32.693Z,5.13
2023-02-02T17:15:22.273Z,4.43
2023-02-02T17:17:49.620Z,2.83
2023-02-02T17:20:18.633Z,3.53
2023-02-02T17:22:52.302Z,2.63
2023-02-02T17:25:40.634Z,2.60
2023-02-02T17:28:11.766Z,3.15
2023-02-02T17:30:43.062Z,2.20
2023-02-02T17:33:16.649Z,1.92
2023-02-02T17:35:55.023Z,2.28
2023-02-02T17:38:24.605Z,2.63
2023-02-02T17:40:52.714Z,3.15
2023-02-02T17:43:19.483Z,2.17
2023-02-02T17:45:46.544Z,2.45
2023-02-02T17:48:14.145Z,2.38
2023-02-02T17:50:42.203Z,2.40
2023-02-02T17:53:13.907Z,2.28
2023-02-02T17:55:42.453Z,2.45
2023-02-02T17:58:10.593Z,2.83
2023-02-02T18:00:38.775Z,2.58
2023-02-02T18:03:31.869Z,2.80
2023-02-02T18:06:01.611Z,2.83
2023-02-02T18:08:29.076Z,1.73
2023-02-02T18:10:55.718Z,2.35
2023-02-02T18:13:23.521Z,2.13
2023-02-02T18:15:52.975Z,1.67
2023-02-02T18:18:19.723Z,2.13
2023-02-02T18:20:49.219Z,2.13
2023-02-02T18:23:17.877Z,2.67
2023-02-02T18:25:44.902Z,1.85
2023-02-02T18:28:11.750Z,2.78
2023-02-02T18:30:39.379Z,2.10
2023-02-02T18:33:08.917Z,2.40
2023-02-02T18:35:40.505Z,2.20
2023-02-02T18:38:07.111Z,2.90
2023-02-02T18:40:33.722Z,1.95
2023-02-02T18:43:00.365Z,1.92
2023-02-02T18:45:27.339Z,2.83
2023-02-02T18:47:54.136Z,1.85
2023-02-02T18:50:22.061Z,2.42
2023-02-02T18:52:48.785Z,2.15
2023-02-02T18:55:15.480Z,2.60
2023-02-02T18:57:42.183Z,2.20
2023-02-02T19:00:09.626Z,2.20
2023-02-02T19:02:36.221Z,1.88
2023-02-02T19:05:21.766Z,2.33
2023-02-02T19:07:54.441Z,2.53
2023-02-02T19:10:22.303Z,2.53
2023-02-02T19:13:01.628Z,2.63
2023-02-02T19:15:28.931Z,2.10
2023-02-02T19:17:55.669Z,1.77
2023-02-02T19:20:30.650Z,2.42
2023-02-02T19:23:11.555Z,2.10
2023-02-02T19:25:40.643Z,1.95
2023-02-02T19:28:17.423Z,1.95
2023-02-02T19:30:45.401Z,2.55
2023-02-02T19:33:14.435Z,3.55
2023-02-02T19:35:44.913Z,2.30
2023-02-02T19:38:14.319Z,2.28
2023-02-02T19:40:42.381Z,2.25
2023-02-02T19:43:27.688Z,1.92
2023-02-02T19:45:57.060Z,3.10
2023-02-02T19:48:26.973Z,2.40
2023-02-02T19:50:55.870Z,2.53
2023-02-02T19:53:25.880Z,2.55
2023-02-02T19:55:52.842Z,2.00
2023-02-02T19:58:29.788Z,3.38
2023-02-02T20:00:57.907Z,1.95
2023-02-02T20:03:28.474Z,2.30
2023-02-02T20:05:56.922Z,2.50
2023-02-02T20:08:31.217Z,3.45
2023-02-02T20:11:00.748Z,2.58
2023-02-02T20:13:46.539Z,3.13
2023-02-02T20:16:19.420Z,2.58
2023-02-02T20:18:53.092Z,2.50
2023-02-02T20:21:28.510Z,3.63
2023-02-02T20:23:55.192Z,3.20
2023-02-02T20:26:34.136Z,2.58
2023-02-02T20:29:14.978Z,2.67
2023-02-02T20:31:41.719Z,2.72
2023-02-02T20:34:22.441Z,2.72
2023-02-02T20:36:49.759Z,2.75
2023-02-02T20:39:16.316Z,2.50
2023-02-02T20:41:46.316Z,3.25
2023-02-02T20:44:12.913Z,2.90
2023-02-02T20:46:39.977Z,3.30
2023-02-02T20:49:07.145Z,3.45
2023-02-02T20:51:33.797Z,3.17
2023-02-02T20:54:00.820Z,3.67
2023-02-02T20:56:27.461Z,3.05
2023-02-02T20:58:54.048Z,3.47
2023-02-02T21:01:23.334Z,3.20
2023-02-02T21:03:49.940Z,2.97
2023-02-02T21:06:18.197Z,3.30
2023-02-02T21:08:45.486Z,3.33
2023-02-02T21:11:12.500Z,3.38
2023-02-02T21:13:39.225Z,2.97
2023-02-02T21:16:06.292Z,3.83
2023-02-02T21:18:32.915Z,3.47
2023-02-02T21:20:59.526Z,3.25
2023-02-02T21:23:26.264Z,4.57
2023-02-02T21:25:52.904Z,3.58
2023-02-02T21:28:19.578Z,4.50
2023-02-02T21:30:46.322Z,3.42
2023-02-02T21:33:13.068Z,4.15
2023-02-02T21:35:39.758Z,3.50
2023-02-02T21:38:15.113Z,3.30
2023-02-02T21:40:42.194Z,4.10
2023-02-02T21:43:18.319Z,3.55
2023-02-02T21:45:50.488Z,4.50
2023-02-02T21:48:20.433Z,4.45
2023-02-02T21:50:47.911Z,4.65
2023-02-02T21:53:17.318Z,4.07
2023-02-02T21:55:45.961Z,4.65
2023-02-02T21:58:33.463Z,3.88
2023-02-02T22:01:18.913Z,3.92
2023-02-02T22:03:47.986Z,3.63
2023-02-02T22:06:34.727Z,3.17
2023-02-02T22:09:25.924Z,3.40
2023-02-02T22:11:58.248Z,3.15
2023-02-02T22:14:38.245Z,3.17
2023-02-02T22:17:20.646Z,2.72
2023-02-02T22:19:47.693Z,2.85
2023-02-02T22:22:32.525Z,3.38
2023-02-02T22:25:02.581Z,3.72
2023-02-02T22:27:45.737Z,4.20
2023-02-02T22:30:29.181Z,2.65
2023-02-02T22:32:55.981Z,3.13
2023-02-02T22:35:22.713Z,2.97
2023-02-02T22:37:49.710Z,3.72
2023-02-02T22:40:16.626Z,3.85
2023-02-02T22:42:43.556Z,3.10
2023-02-02T22:45:10.433Z,3.67
2023-02-02T22:47:37.359Z,3.63
2023-02-02T22:50:04.212Z,3.38
2023-02-02T22:52:30.916Z,3.08
2023-02-02T22:54:57.719Z,3.53
2023-02-02T22:57:24.506Z,3.38
2023-02-02T22:59:51.089Z,3.22
2023-02-02T23:02:17.673Z,4.63
2023-02-02T23:04:44.515Z,3.95
2023-02-02T23:07:11.151Z,3.60
2023-02-02T23:09:37.745Z,4.07
2023-02-02T23:12:04.648Z,4.40
2023-02-02T23:14:31.263Z,4.03
2023-02-02T23:16:57.887Z,4.13
2023-02-02T23:19:24.689Z,4.30
2023-02-02T23:21:51.264Z,3.65
2023-02-02T23:24:17.844Z,4.47
2023-02-02T23:26:44.467Z,4.75
2023-02-02T23:29:11.032Z,4.15
2023-02-02T23:31:37.777Z,3.70
2023-02-02T23:34:04.403Z,3.35
2023-02-02T23:36:31.005Z,3.13
2023-02-02T23:38:57.625Z,3.13
2023-02-02T23:41:24.324Z,2.90
2023-02-02T23:43:50.981Z,3.55
2023-02-02T23:46:18.291Z,3.13
2023-02-02T23:48:45.282Z,3.20
2023-02-02T23:51:12.997Z,3.75
2023-02-02T23:53:40.483Z,2.63
2023-02-02T23:56:07.303Z,3.10
2023-02-02T23:58:33.923Z,2.63
